createdAt,value
2023-03-17T00:00:55.677Z,2.50
2023-03-17T00:03:29.787Z,3.13
2023-03-17T00:06:01.572Z,3.27
2023-03-17T00:08:36.021Z,2.50
2023-03-17T00:11:07.595Z,3.00
2023-03-17T00:13:38.208Z,2.57
2023-03-17T00:16:15.749Z,2.87
2023-03-17T00:18:46.173Z,2.80
2023-03-17T00:21:19.679Z,2.83
2023-03-17T00:23:54.925Z,3.27
2023-03-17T00:26:25.085Z,3.37
2023-03-17T00:28:56.124Z,3.10
2023-03-17T00:31:28.854Z,2.57
2023-03-17T00:34:00.992Z,2.73
2023-03-17T00:36:33.008Z,3.20
2023-03-17T00:39:18.165Z,3.60
2023-03-17T00:41:49.149Z,2.97
2023-03-17T00:44:19.110Z,2.77
2023-03-17T00:46:49.041Z,2.97
2023-03-17T00:49:21.739Z,2.53
2023-03-17T00:51:52.412Z,3.20
2023-03-17T00:54:25.172Z,3.27
2023-03-17T00:56:55.222Z,2.90
2023-03-17T00:59:30.819Z,2.80
2023-03-17T01:02:00.744Z,2.50
2023-03-17T01:04:30.582Z,3.50
2023-03-17T01:07:01.212Z,2.47
2023-03-17T01:09:34.340Z,2.57
2023-03-17T01:12:04.179Z,2.77
2023-03-17T01:14:37.403Z,2.60
2023-03-17T01:17:12.980Z,3.03
2023-03-17T01:19:43.383Z,2.60
2023-03-17T01:22:13.636Z,2.80
2023-03-17T01:24:47.871Z,2.23
2023-03-17T01:27:17.736Z,3.50
2023-03-17T01:29:48.020Z,2.17
2023-03-17T01:32:17.867Z,2.83
2023-03-17T01:34:47.769Z,3.03
2023-03-17T01:37:17.739Z,3.03
2023-03-17T01:39:51.793Z,3.40
2023-03-17T01:42:22.701Z,2.50
2023-03-17T01:45:03.326Z,2.70
2023-03-17T01:47:33.957Z,2.40
2023-03-17T01:50:09.341Z,3.23
2023-03-17T01:52:42.502Z,2.80
2023-03-17T01:55:18.776Z,3.10
2023-03-17T01:57:53.904Z,2.97
2023-03-17T02:00:26.663Z,2.97
2023-03-17T02:02:59.472Z,3.30
2023-03-17T02:05:32.711Z,2.80
2023-03-17T02:08:03.821Z,3.20
2023-03-17T02:10:36.245Z,2.50
2023-03-17T02:13:08.326Z,2.10
2023-03-17T02:15:43.053Z,2.70
2023-03-17T02:18:15.807Z,3.27
2023-03-17T02:21:31.397Z,3.07
2023-03-17T02:24:07.310Z,3.27
2023-03-17T02:26:40.666Z,2.67
2023-03-17T02:29:12.769Z,2.30
2023-03-17T02:31:44.773Z,2.30
2023-03-17T02:34:15.860Z,3.30
2023-03-17T02:36:49.343Z,2.73
2023-03-17T02:39:22.371Z,3.40
2023-03-17T02:41:53.170Z,3.43
2023-03-17T02:44:23.303Z,2.67
2023-03-17T02:46:55.771Z,2.83
2023-03-17T02:49:27.242Z,2.50
2023-03-17T02:51:57.342Z,3.13
2023-03-17T02:54:30.094Z,3.13
2023-03-17T02:57:00.034Z,2.93
2023-03-17T02:59:30.540Z,2.77
2023-03-17T03:02:01.094Z,2.60
2023-03-17T03:04:30.999Z,3.03
2023-03-17T03:07:00.861Z,3.30
2023-03-17T03:09:33.577Z,3.20
2023-03-17T03:12:03.393Z,2.90
2023-03-17T03:14:33.278Z,2.93
2023-03-17T03:17:03.062Z,2.77
2023-03-17T03:19:33.386Z,2.80
2023-03-17T03:22:03.149Z,3.13
2023-03-17T03:24:35.971Z,2.60
2023-03-17T03:27:06.475Z,3.00
2023-03-17T03:29:36.581Z,3.27
2023-03-17T03:32:06.679Z,2.73
2023-03-17T03:34:36.702Z,3.43
2023-03-17T03:37:06.865Z,3.23
2023-03-17T03:39:39.314Z,2.80
2023-03-17T03:42:09.584Z,3.10
2023-03-17T03:44:39.944Z,2.87
2023-03-17T03:47:09.881Z,3.27
2023-03-17T03:49:39.666Z,3.07
2023-03-17T03:52:09.672Z,2.27
2023-03-17T03:54:42.060Z,2.53
2023-03-17T03:57:12.049Z,2.73
2023-03-17T03:59:42.095Z,3.00
2023-03-17T04:02:14.462Z,2.70
2023-03-17T04:04:44.365Z,3.00
2023-03-17T04:07:14.371Z,2.17
2023-03-17T04:09:47.689Z,2.67
2023-03-17T04:12:17.529Z,3.00
2023-03-17T04:14:48.144Z,2.30
2023-03-17T04:17:18.051Z,2.67
2023-03-17T04:19:48.057Z,2.97
2023-03-17T04:22:17.903Z,3.27
2023-03-17T04:24:50.417Z,3.60
2023-03-17T04:27:20.278Z,2.63
2023-03-17T04:29:50.545Z,3.30
2023-03-17T04:32:20.456Z,2.30
2023-03-17T04:34:50.478Z,2.60
2023-03-17T04:37:20.278Z,2.83
2023-03-17T04:39:53.543Z,2.50
2023-03-17T04:42:23.371Z,2.30
2023-03-17T04:44:53.864Z,2.37
2023-03-17T04:47:23.632Z,2.60
2023-03-17T04:49:54.409Z,2.40
2023-03-17T04:52:24.315Z,1.97
2023-03-17T04:54:57.778Z,2.17
2023-03-17T04:57:27.562Z,2.70
2023-03-17T04:59:57.994Z,2.30
2023-03-17T05:02:28.291Z,1.80
2023-03-17T05:04:58.306Z,1.97
2023-03-17T05:07:28.214Z,1.80
2023-03-17T05:10:02.200Z,1.93
2023-03-17T05:12:32.060Z,1.87
2023-03-17T05:15:02.165Z,1.90
2023-03-17T05:17:31.953Z,2.00
2023-03-17T05:20:02.283Z,1.50
2023-03-17T05:22:32.073Z,1.50
2023-03-17T05:25:04.982Z,2.00
2023-03-17T05:27:34.843Z,2.30
2023-03-17T05:30:05.802Z,1.77
2023-03-17T05:32:35.792Z,2.03
2023-03-17T05:35:06.720Z,1.60
2023-03-17T05:37:36.864Z,2.00
2023-03-17T05:40:11.007Z,1.70
2023-03-17T05:42:41.374Z,1.80
2023-03-17T05:45:23.982Z,1.70
2023-03-17T05:47:55.938Z,1.83
2023-03-17T05:50:27.872Z,1.60
2023-03-17T05:52:57.785Z,1.30
2023-03-17T05:55:30.796Z,1.70
2023-03-17T05:58:00.975Z,1.60
2023-03-17T06:00:31.355Z,1.80
2023-03-17T06:03:02.010Z,1.30
2023-03-17T06:05:31.898Z,1.90
2023-03-17T06:08:02.063Z,1.77
2023-03-17T06:10:35.039Z,1.40
2023-03-17T06:13:04.972Z,1.00
2023-03-17T06:15:36.371Z,1.50
2023-03-17T06:18:07.488Z,1.20
2023-03-17T06:20:37.593Z,1.97
2023-03-17T06:23:07.602Z,1.50
2023-03-17T06:25:40.955Z,1.40
2023-03-17T06:28:11.308Z,1.17
2023-03-17T06:30:41.575Z,1.57
2023-03-17T06:33:11.875Z,1.40
2023-03-17T06:35:41.805Z,1.43
2023-03-17T06:38:11.657Z,1.23
2023-03-17T06:40:44.084Z,1.70
2023-03-17T06:43:14.122Z,1.57
2023-03-17T06:45:44.034Z,1.37
2023-03-17T06:48:14.155Z,1.53
2023-03-17T06:50:43.952Z,1.40
2023-03-17T06:53:13.727Z,1.50
2023-03-17T06:55:46.950Z,1.80
2023-03-17T06:58:17.091Z,1.60
2023-03-17T07:00:48.962Z,1.10
2023-03-17T07:03:19.126Z,1.53
2023-03-17T07:05:49.553Z,1.47
2023-03-17T07:08:19.626Z,1.80
2023-03-17T07:10:52.986Z,1.30
2023-03-17T07:13:22.801Z,1.53
2023-03-17T07:15:55.285Z,1.30
2023-03-17T07:18:25.632Z,1.50
2023-03-17T07:20:56.403Z,0.90
2023-03-17T07:23:26.286Z,1.20
2023-03-17T07:26:00.312Z,1.50
2023-03-17T07:28:30.119Z,1.20
2023-03-17T07:31:02.664Z,1.13
2023-03-17T07:33:33.833Z,1.20
2023-03-17T07:36:05.235Z,1.30
2023-03-17T07:38:36.271Z,1.33
2023-03-17T07:41:11.040Z,1.30
2023-03-17T07:43:41.844Z,1.50
2023-03-17T07:46:12.340Z,1.00
2023-03-17T07:48:43.557Z,1.07
2023-03-17T07:51:19.055Z,0.93
2023-03-17T07:53:50.154Z,1.07
2023-03-17T07:56:23.791Z,0.80
2023-03-17T07:58:53.592Z,1.17
2023-03-17T08:01:24.717Z,1.00
2023-03-17T08:03:57.553Z,0.93
2023-03-17T08:06:28.096Z,1.23
2023-03-17T08:08:58.110Z,0.93
2023-03-17T08:11:31.157Z,1.03
2023-03-17T08:14:01.694Z,1.00
2023-03-17T08:16:31.895Z,1.07
2023-03-17T08:19:03.951Z,1.10
2023-03-17T08:21:34.158Z,1.20
2023-03-17T08:24:04.894Z,1.30
2023-03-17T08:26:37.854Z,1.10
2023-03-17T08:29:08.118Z,1.67
2023-03-17T08:31:38.159Z,1.30
2023-03-17T08:34:08.016Z,1.43
2023-03-17T08:36:38.003Z,1.10
2023-03-17T08:39:09.504Z,1.10
2023-03-17T08:41:42.623Z,1.33
2023-03-17T08:44:13.214Z,1.20
2023-03-17T08:46:43.260Z,1.20
2023-03-17T08:49:13.705Z,1.47
2023-03-17T08:51:44.764Z,1.07
2023-03-17T08:54:15.345Z,1.10
2023-03-17T08:56:48.219Z,1.10
2023-03-17T08:59:18.584Z,1.13
2023-03-17T09:01:48.833Z,1.30
2023-03-17T09:04:18.687Z,1.07
2023-03-17T09:07:02.258Z,1.10
2023-03-17T09:09:34.594Z,0.90
2023-03-17T09:12:09.414Z,1.03
2023-03-17T09:14:43.736Z,1.20
2023-03-17T09:17:16.621Z,1.37
2023-03-17T09:19:47.032Z,1.10
2023-03-17T09:22:18.874Z,1.40
2023-03-17T09:24:48.942Z,1.17
2023-03-17T09:27:21.649Z,1.13
2023-03-17T09:29:51.479Z,1.10
2023-03-17T09:32:21.694Z,0.97
2023-03-17T09:34:51.814Z,1.00
2023-03-17T09:37:22.332Z,1.00
2023-03-17T09:39:52.785Z,1.00
2023-03-17T09:42:41.239Z,0.80
2023-03-17T09:45:31.343Z,0.80
2023-03-17T09:48:21.549Z,1.00
2023-03-17T09:50:59.016Z,0.70
2023-03-17T09:53:34.218Z,1.00
2023-03-17T09:56:09.892Z,0.97
2023-03-17T09:58:46.795Z,0.80
2023-03-17T10:01:16.620Z,1.20
2023-03-17T10:03:47.260Z,1.00
2023-03-17T10:06:36.568Z,0.90
2023-03-17T10:09:16.758Z,1.10
2023-03-17T10:11:50.642Z,0.77
2023-03-17T10:14:51.373Z,1.00
2023-03-17T10:17:24.265Z,1.20
2023-03-17T10:20:00.780Z,0.87
2023-03-17T10:22:37.606Z,0.80
2023-03-17T10:25:15.710Z,0.80
2023-03-17T10:27:51.589Z,1.00
2023-03-17T10:30:26.019Z,0.87
2023-03-17T10:32:59.586Z,1.13
2023-03-17T10:35:29.993Z,1.13
2023-03-17T10:38:13.936Z,1.13
2023-03-17T10:40:47.363Z,1.10
2023-03-17T10:43:21.770Z,1.47
2023-03-17T10:46:06.855Z,1.10
2023-03-17T10:48:40.074Z,1.70
2023-03-17T10:51:12.974Z,1.20
2023-03-17T10:53:44.677Z,1.27
2023-03-17T10:56:25.437Z,1.50
2023-03-17T10:58:57.364Z,1.37
2023-03-17T11:01:32.743Z,1.20
2023-03-17T11:04:03.967Z,1.33
2023-03-17T11:06:42.301Z,1.30
2023-03-17T11:09:13.494Z,1.30
2023-03-17T11:11:48.695Z,1.17
2023-03-17T11:14:20.331Z,1.90
2023-03-17T11:16:58.253Z,1.50
2023-03-17T11:19:40.274Z,1.10
2023-03-17T11:22:14.339Z,1.53
2023-03-17T11:24:56.202Z,1.20
2023-03-17T11:27:33.568Z,2.13
2023-03-17T11:30:18.130Z,1.70
2023-03-17T11:32:58.275Z,1.77
2023-03-17T11:35:45.572Z,1.90
2023-03-17T11:38:28.603Z,1.60
2023-03-17T11:41:20.748Z,1.47
2023-03-17T11:44:05.800Z,1.80
2023-03-17T11:46:40.206Z,1.93
2023-03-17T11:49:17.575Z,1.77
2023-03-17T11:51:59.319Z,2.00
2023-03-17T11:54:37.575Z,1.73
2023-03-17T11:57:12.927Z,2.20
2023-03-17T11:59:47.979Z,2.07
2023-03-17T12:02:27.536Z,2.00
2023-03-17T12:05:05.160Z,3.17
2023-03-17T12:07:39.608Z,2.00
2023-03-17T12:10:18.177Z,1.80
2023-03-17T12:12:53.440Z,1.57
2023-03-17T12:15:31.217Z,2.20
2023-03-17T12:18:04.864Z,1.47
2023-03-17T12:20:48.098Z,2.10
2023-03-17T12:23:29.863Z,2.13
2023-03-17T12:26:05.251Z,1.70
2023-03-17T12:28:40.128Z,2.10
2023-03-17T12:31:14.837Z,1.70
2023-03-17T12:33:52.666Z,1.67
2023-03-17T12:36:25.407Z,1.50
2023-03-17T12:39:02.274Z,1.73
2023-03-17T12:41:45.696Z,2.00
2023-03-17T12:44:27.194Z,1.70
2023-03-17T12:47:33.969Z,2.00
2023-03-17T12:50:30.231Z,2.07
2023-03-17T12:53:29.730Z,2.00
2023-03-17T12:56:04.071Z,1.80
2023-03-17T12:58:38.945Z,2.00
2023-03-17T13:01:17.421Z,1.70
2023-03-17T13:04:04.502Z,1.73
2023-03-17T13:06:42.637Z,1.70
2023-03-17T13:09:48.906Z,2.30
2023-03-17T13:12:49.620Z,2.40
2023-03-17T13:15:31.285Z,2.20
2023-03-17T13:18:31.399Z,1.77
2023-03-17T13:21:15.264Z,2.07
2023-03-17T13:23:47.641Z,1.90
2023-03-17T13:26:22.793Z,1.80
2023-03-17T13:28:54.145Z,2.03
2023-03-17T13:31:39.803Z,2.50
2023-03-17T13:34:16.631Z,1.63
2023-03-17T13:37:02.187Z,1.70
2023-03-17T13:40:02.500Z,1.90
2023-03-17T13:42:57.181Z,1.93
2023-03-17T13:45:39.947Z,1.70
2023-03-17T13:48:30.550Z,1.73
2023-03-17T13:51:04.605Z,1.90
2023-03-17T13:53:39.186Z,2.00
2023-03-17T13:56:20.430Z,2.00
2023-03-17T13:59:16.002Z,1.63
2023-03-17T14:01:52.207Z,1.80
2023-03-17T14:04:25.155Z,1.73
2023-03-17T14:06:58.197Z,1.90
2023-03-17T14:09:39.523Z,2.03
2023-03-17T14:12:16.034Z,1.87
2023-03-17T14:14:53.774Z,1.57
2023-03-17T14:17:28.856Z,1.33
2023-03-17T14:20:09.002Z,1.67
2023-03-17T14:22:47.307Z,1.50
2023-03-17T14:25:19.530Z,2.50
2023-03-17T14:27:52.627Z,1.57
2023-03-17T14:30:27.426Z,1.57
2023-03-17T14:33:03.737Z,1.40
2023-03-17T14:35:35.341Z,1.93
2023-03-17T14:38:05.723Z,1.50
2023-03-17T14:40:37.049Z,1.47
2023-03-17T14:43:08.243Z,1.63
2023-03-17T14:45:55.533Z,1.60
2023-03-17T14:48:29.936Z,1.77
2023-03-17T14:51:05.737Z,1.67
2023-03-17T14:53:37.157Z,1.57
2023-03-17T14:56:08.665Z,2.17
2023-03-17T14:58:42.734Z,1.30
2023-03-17T15:01:20.993Z,1.90
2023-03-17T15:04:03.618Z,1.67
2023-03-17T15:06:37.408Z,1.60
2023-03-17T15:09:21.071Z,1.40
2023-03-17T15:11:51.347Z,1.37
2023-03-17T15:14:25.954Z,1.47
2023-03-17T15:16:59.406Z,1.67
2023-03-17T15:19:34.820Z,1.43
2023-03-17T15:22:22.560Z,1.10
2023-03-17T15:25:01.024Z,1.07
2023-03-17T15:27:33.206Z,2.00
2023-03-17T15:30:03.301Z,1.30
2023-03-17T15:32:35.806Z,1.30
2023-03-17T15:35:06.136Z,1.50
2023-03-17T15:37:38.125Z,1.40
2023-03-17T15:40:10.249Z,1.30
2023-03-17T15:42:42.457Z,1.27
2023-03-17T15:45:14.156Z,1.07
2023-03-17T15:47:49.330Z,1.70
2023-03-17T15:50:24.191Z,1.27
2023-03-17T15:52:56.119Z,1.53
2023-03-17T15:55:29.507Z,1.40
2023-03-17T15:58:02.636Z,1.63
2023-03-17T16:00:33.533Z,1.60
2023-03-17T16:03:14.930Z,1.57
2023-03-17T16:05:46.060Z,1.40
2023-03-17T16:08:17.981Z,1.50
2023-03-17T16:10:49.142Z,1.47
2023-03-17T16:13:22.816Z,1.13
2023-03-17T16:15:57.143Z,1.63
2023-03-17T16:18:36.514Z,1.53
2023-03-17T16:21:07.749Z,1.30
2023-03-17T16:23:39.274Z,1.30
2023-03-17T16:26:15.703Z,1.73
2023-03-17T16:28:47.753Z,1.30
2023-03-17T16:31:24.803Z,1.30
2023-03-17T16:33:57.889Z,1.40
2023-03-17T16:36:28.675Z,1.57
2023-03-17T16:38:58.993Z,1.20
2023-03-17T16:41:30.767Z,1.40
2023-03-17T16:44:02.691Z,1.77
2023-03-17T16:46:36.371Z,1.27
2023-03-17T16:49:08.938Z,1.20
2023-03-17T16:51:38.777Z,1.80
2023-03-17T16:54:09.007Z,1.57
2023-03-17T16:56:39.369Z,1.53
2023-03-17T16:59:13.239Z,1.30
2023-03-17T17:01:43.192Z,1.50
2023-03-17T17:04:16.139Z,1.30
2023-03-17T17:06:46.047Z,1.50
2023-03-17T17:09:15.879Z,1.33
2023-03-17T17:11:46.143Z,1.50
2023-03-17T17:14:16.116Z,1.40
2023-03-17T17:16:46.923Z,1.30
2023-03-17T17:19:20.829Z,1.33
2023-03-17T17:21:50.776Z,1.20
2023-03-17T17:24:20.622Z,1.23
2023-03-17T17:26:50.664Z,1.43
2023-03-17T17:29:20.647Z,1.23
2023-03-17T17:31:51.037Z,1.57
2023-03-17T17:34:23.534Z,1.30
2023-03-17T17:36:53.277Z,1.20
2023-03-17T17:39:23.244Z,0.90
2023-03-17T17:41:53.001Z,1.20
2023-03-17T17:44:23.000Z,1.00
2023-03-17T17:46:53.096Z,0.80
2023-03-17T17:49:25.680Z,1.20
2023-03-17T17:51:55.453Z,1.30
2023-03-17T17:54:25.511Z,1.10
2023-03-17T17:56:55.343Z,1.20
2023-03-17T17:59:26.323Z,1.37
2023-03-17T18:01:56.089Z,1.37
2023-03-17T18:04:28.957Z,1.10
2023-03-17T18:06:58.815Z,1.43
2023-03-17T18:09:31.520Z,1.70
2023-03-17T18:12:05.549Z,1.43
2023-03-17T18:14:36.204Z,1.33
2023-03-17T18:17:06.908Z,1.63
2023-03-17T18:19:39.339Z,1.70
2023-03-17T18:22:09.211Z,1.40
2023-03-17T18:24:39.478Z,1.17
2023-03-17T18:27:09.825Z,1.40
2023-03-17T18:29:39.898Z,1.30
2023-03-17T18:32:10.557Z,1.10
2023-03-17T18:34:47.631Z,1.30
2023-03-17T18:37:20.290Z,1.57
2023-03-17T18:40:09.731Z,1.60
2023-03-17T18:42:40.759Z,1.13
2023-03-17T18:45:13.650Z,1.00
2023-03-17T18:47:43.684Z,1.10
2023-03-17T18:50:18.806Z,1.27
2023-03-17T18:52:48.694Z,1.27
2023-03-17T18:55:19.435Z,1.33
2023-03-17T18:57:50.287Z,1.43
2023-03-17T19:00:21.263Z,1.00
2023-03-17T19:02:51.501Z,1.40
2023-03-17T19:05:25.063Z,1.00
2023-03-17T19:07:54.990Z,1.50
2023-03-17T19:10:26.029Z,1.10
2023-03-17T19:12:56.242Z,1.20
2023-03-17T19:15:26.121Z,1.10
2023-03-17T19:17:56.287Z,1.20
2023-03-17T19:20:29.180Z,1.40
2023-03-17T19:22:59.745Z,1.30
2023-03-17T19:25:30.223Z,1.23
2023-03-17T19:28:00.228Z,1.50
2023-03-17T19:30:30.302Z,1.37
2023-03-17T19:33:00.366Z,1.00
2023-03-17T19:35:33.206Z,1.30
2023-03-17T19:38:04.134Z,1.30
2023-03-17T19:40:34.211Z,1.03
2023-03-17T19:43:04.003Z,1.10
2023-03-17T19:45:34.189Z,1.20
2023-03-17T19:48:03.959Z,1.40
2023-03-17T19:50:36.988Z,1.20
2023-03-17T19:53:07.217Z,1.10
2023-03-17T19:55:42.160Z,1.30
2023-03-17T19:58:12.830Z,1.30
2023-03-17T20:00:44.159Z,1.47
2023-03-17T20:03:14.968Z,1.50
2023-03-17T20:05:47.748Z,1.50
2023-03-17T20:08:17.566Z,1.30
2023-03-17T20:10:47.688Z,1.60
2023-03-17T20:13:17.504Z,1.17
2023-03-17T20:15:47.797Z,1.70
2023-03-17T20:18:18.742Z,1.50
2023-03-17T20:20:55.490Z,1.10
2023-03-17T20:23:26.559Z,1.63
2023-03-17T20:25:57.326Z,1.27
2023-03-17T20:28:29.835Z,1.53
2023-03-17T20:31:03.002Z,1.40
2023-03-17T20:33:33.442Z,0.93
2023-03-17T20:36:06.295Z,1.50
2023-03-17T20:38:39.628Z,1.33
2023-03-17T20:41:11.019Z,1.37
2023-03-17T20:43:41.928Z,1.50
2023-03-17T20:46:16.377Z,1.30
2023-03-17T20:48:48.065Z,1.13
2023-03-17T20:51:21.661Z,1.30
2023-03-17T20:53:53.724Z,1.37
2023-03-17T20:56:28.392Z,1.57
2023-03-17T20:58:58.743Z,1.10
2023-03-17T21:01:29.404Z,1.30
2023-03-17T21:03:59.593Z,1.60
2023-03-17T21:06:35.261Z,1.10
2023-03-17T21:09:06.092Z,1.37
2023-03-17T21:11:36.669Z,1.47
2023-03-17T21:14:07.023Z,1.43
2023-03-17T21:16:38.810Z,1.10
2023-03-17T21:19:09.680Z,1.20
2023-03-17T21:21:42.200Z,1.37
2023-03-17T21:24:26.675Z,1.40
2023-03-17T21:26:57.277Z,1.43
2023-03-17T21:29:27.877Z,1.23
2023-03-17T21:32:00.549Z,1.30
2023-03-17T21:34:31.221Z,1.33
2023-03-17T21:37:03.821Z,1.60
2023-03-17T21:39:34.370Z,1.50
2023-03-17T21:42:04.317Z,1.20
2023-03-17T21:44:35.037Z,1.60
2023-03-17T21:47:05.213Z,1.70
2023-03-17T21:49:36.982Z,1.50
2023-03-17T21:52:09.883Z,1.30
2023-03-17T21:54:40.319Z,1.30
2023-03-17T21:57:11.917Z,1.40
2023-03-17T21:59:42.421Z,1.23
2023-03-17T22:02:14.358Z,1.37
2023-03-17T22:04:49.128Z,1.30
2023-03-17T22:07:21.588Z,1.37
2023-03-17T22:09:54.925Z,1.23
2023-03-17T22:12:25.344Z,1.77
2023-03-17T22:14:56.081Z,1.40
2023-03-17T22:17:25.883Z,1.13
2023-03-17T22:19:56.150Z,1.43
2023-03-17T22:22:28.853Z,1.27
2023-03-17T22:24:59.232Z,1.33
2023-03-17T22:27:29.064Z,1.87
2023-03-17T22:29:59.258Z,1.40
2023-03-17T22:32:29.108Z,1.50
2023-03-17T22:34:59.234Z,1.33
2023-03-17T22:37:32.230Z,1.60
2023-03-17T22:40:05.596Z,1.30
2023-03-17T22:42:35.432Z,1.30
2023-03-17T22:45:05.415Z,1.20
2023-03-17T22:47:35.180Z,1.57
2023-03-17T22:50:05.348Z,1.60
2023-03-17T22:52:38.228Z,1.40
2023-03-17T22:55:09.767Z,1.50
2023-03-17T22:57:40.128Z,1.57
2023-03-17T23:00:16.670Z,1.83
2023-03-17T23:02:47.367Z,1.77
2023-03-17T23:05:17.845Z,1.40
2023-03-17T23:07:51.518Z,1.50
2023-03-17T23:10:25.697Z,1.67
2023-03-17T23:12:56.434Z,1.53
2023-03-17T23:15:26.927Z,1.33
2023-03-17T23:17:56.812Z,1.10
2023-03-17T23:20:27.182Z,1.73
2023-03-17T23:22:59.552Z,1.20
2023-03-17T23:25:29.620Z,2.30
2023-03-17T23:27:59.353Z,1.60
2023-03-17T23:30:30.256Z,1.70
2023-03-17T23:33:01.302Z,2.20
2023-03-17T23:35:31.759Z,1.23
2023-03-17T23:38:04.354Z,1.37
2023-03-17T23:40:35.416Z,1.60
2023-03-17T23:43:05.581Z,1.20
2023-03-17T23:45:36.055Z,1.83
2023-03-17T23:48:06.235Z,1.50
2023-03-17T23:50:36.512Z,1.50
2023-03-17T23:53:09.499Z,1.70
2023-03-17T23:55:40.972Z,1.10
2023-03-17T23:58:11.010Z,1.37
